CST,Max TemperatureF,Mean TemperatureF,Min TemperatureF,Max Dew PointF,MeanDew PointF,Min DewpointF,Max Humidity, Mean Humidity, Min Humidity, Max Sea Level PressureIn, Mean Sea Level PressureIn, Min Sea Level PressureIn, Max VisibilityMiles, Mean VisibilityMiles, Min VisibilityMiles, Max Wind SpeedMPH, Mean Wind SpeedMPH, Max Gust SpeedMPH,PrecipitationIn, CloudCover, Events, WindDirDegrees
2013-2-1,2,-7,-16,-8,-14,-19,81,66,51,30.24,30.17,30.08,10,10,7,17,9,23,T,3,,259
2013-2-2,12,1,-11,-3,-7,-14,83,68,52,30.16,30.10,29.98,10,10,8,8,3,13,T,4,Snow,266
2013-2-3,10,0,-11,0,-5,-14,82,69,55,30.05,29.95,29.82,10,9,2,20,6,25,T,5,Snow,283
2013-2-4,14,-1,-17,-3,-11,-20,83,58,33,30.07,29.99,29.87,10,9,2,12,3,15,0.00,1,,262
2013-2-5,20,7,-6,13,5,-11,95,78,60,30.12,29.77,29.59,10,4,0,14,7,20,0.08,6,Snow,245
2013-2-6,21,7,-8,18,7,-14,91,77,62,30.22,30.09,29.99,10,4,0,12,4,15,0.11,6,Fog-Snow,152
2013-2-7,23,21,18,20,18,13,92,85,77,30.26,30.13,30.02,10,6,2,14,8,22,0.03,8,Snow,47
2013-2-8,24,14,3,10,6,1,91,71,50,30.41,30.35,30.20,10,10,9,13,3,17,T,1,,15
2013-2-9,24,13,2,20,11,-1,92,77,62,30.38,30.19,30.01,10,8,2,18,6,23,0.00,5,,161
2013-2-10,33,28,22,32,27,19,92,88,84,30.06,29.62,29.28,9,3,0,26,11,32,0.54,8,Fog-Rain-Snow,104
2013-2-11,34,27,20,32,25,16,96,87,77,29.93,29.49,29.21,10,4,0,20,10,28,0.17,8,Fog-Snow,276
2013-2-12,22,19,15,17,14,11,84,79,73,29.99,29.90,29.78,10,8,2,15,9,18,T,7,Snow,243
2013-2-13,35,24,13,28,23,11,92,81,69,29.78,29.67,29.58,10,5,1,10,5,13,0.01,7,Snow,236
2013-2-14,29,21,13,27,21,7,92,80,67,30.05,29.70,29.56,10,4,1,14,6,21,0.16,8,Snow,343
2013-2-15,17,8,-2,7,2,-7,88,73,58,30.23,30.12,29.97,10,10,7,13,7,20,T,6,,283
2013-2-16,13,1,-12,2,-5,-15,87,70,53,30.24,30.17,30.04,10,10,5,10,3,16,T,4,,312
2013-2-17,21,2,-17,8,-11,-23,91,65,39,30.22,30.10,29.91,10,6,0,13,5,20,0.00,5,,165
2013-2-18,35,27,19,28,23,10,85,74,62,29.87,29.55,29.43,10,6,0,15,8,22,0.06,6,Fog-Snow,236
2013-2-19,26,14,2,23,4,-5,84,74,63,30.18,29.74,29.44,10,5,1,22,13,33,0.06,7,Snow,304
2013-2-20,19,10,1,5,2,-3,80,67,54,30.47,30.34,30.08,10,10,6,16,8,26,T,4,Snow,347
2013-2-21,27,12,-4,16,7,-6,87,71,55,30.51,30.38,30.19,10,9,2,21,6,26,T,4,Snow,50
2013-2-22,25,19,13,20,17,10,91,86,81,30.18,29.89,29.75,10,4,0,17,8,23,0.23,8,Fog-Snow,68
2013-2-23,29,20,11,25,20,10,92,84,75,29.90,29.79,29.70,10,4,0,12,4,13,0.04,8,Fog-Snow,278
2013-2-24,32,27,21,22,19,18,92,75,58,30.13,30.02,29.86,10,10,8,9,2,12,T,8,Snow,321
2013-2-25,32,27,21,25,22,18,88,79,69,30.15,30.12,30.06,10,10,7,9,2,12,T,8,,188
2013-2-26,34,27,19,25,22,18,92,77,61,30.11,29.99,29.86,10,8,0,17,8,26,T,6,Fog,50
2013-2-27,31,30,28,25,23,21,85,77,69,29.92,29.80,29.73,10,6,1,18,11,30,0.11,8,Snow,13
2013-2-28,29,25,20,23,17,11,81,69,57,30.24,30.08,29.93,10,10,8,16,10,26,T,8,,17